createdAt,value
2018-08-07T06:43:56.045Z,32
2018-08-07T06:46:56.096Z,33
2018-08-07T06:49:56.109Z,33
2018-08-07T06:52:56.139Z,34
2018-08-07T06:55:56.299Z,35
2018-08-07T06:58:56.319Z,36
2018-08-07T07:01:56.394Z,37
2018-08-07T07:04:56.245Z,37
2018-08-07T07:07:56.413Z,37
2018-08-07T07:10:56.380Z,37
2018-08-07T07:13:56.363Z,36
2018-08-07T07:16:56.361Z,36
2018-08-07T07:19:56.428Z,34
2018-08-07T07:22:56.443Z,33
2018-08-07T07:25:56.484Z,32
2018-08-07T07:28:56.585Z,32
2018-08-07T07:31:56.534Z,32
2018-08-07T07:34:56.631Z,32
2018-08-07T07:37:56.795Z,33
2018-08-07T07:40:56.672Z,34
2018-08-07T07:43:56.625Z,35
2018-08-07T07:46:56.694Z,38
2018-08-07T07:49:56.682Z,40
2018-08-07T07:52:56.735Z,41
2018-08-07T07:55:57.092Z,43
2018-08-07T07:58:56.805Z,44
2018-08-07T08:01:56.885Z,45
2018-08-07T08:04:56.900Z,46
2018-08-07T08:07:56.936Z,46
2018-08-07T08:10:56.958Z,47
2018-08-07T08:13:57.043Z,48
2018-08-07T08:16:57.147Z,48
2018-08-07T08:19:57.082Z,48
2018-08-07T08:22:57.317Z,48
2018-08-07T08:25:57.165Z,49
2018-08-07T08:28:57.368Z,49
2018-08-07T08:31:57.430Z,48
2018-08-07T08:34:57.322Z,48
2018-08-07T08:37:57.380Z,48
2018-08-07T08:40:57.397Z,48
2018-08-07T08:43:57.405Z,48
2018-08-07T08:46:57.483Z,48
2018-08-07T08:49:57.584Z,48
2018-08-07T08:52:57.577Z,47
2018-08-07T08:55:57.626Z,47
2018-08-07T08:58:57.767Z,48
2018-08-07T09:01:57.884Z,48
2018-08-07T09:04:58.015Z,48
2018-08-07T09:07:57.746Z,48
2018-08-07T09:10:57.876Z,49
2018-08-07T09:13:57.791Z,50
2018-08-07T09:16:57.848Z,50
2018-08-07T09:19:58.060Z,51
2018-08-07T09:22:58.027Z,49
2018-08-07T09:25:58.206Z,48
2018-08-07T09:28:58.078Z,47
2018-08-07T09:34:58.120Z,50
2018-08-07T09:37:58.145Z,49
2018-08-07T09:40:58.342Z,47
2018-08-07T09:43:58.203Z,45
2018-08-07T09:46:58.247Z,43
2018-08-07T09:49:58.388Z,42
2018-08-07T09:52:58.294Z,40
2018-08-07T09:55:58.305Z,40
2018-08-07T09:58:58.355Z,39
2018-08-07T10:01:58.362Z,38
2018-08-07T10:04:58.537Z,37
2018-08-07T10:07:58.459Z,37
2018-08-07T10:10:58.494Z,36
2018-08-07T10:13:58.661Z,36
2018-08-07T10:16:58.517Z,36
2018-08-07T10:19:58.636Z,36
2018-08-07T10:22:59.006Z,37
2018-08-07T10:25:58.627Z,37
2018-08-07T10:28:58.751Z,36
2018-08-07T10:31:58.685Z,36
2018-08-07T10:34:58.764Z,36
2018-08-07T14:43:19.545Z,26
2018-08-07T14:46:19.385Z,26
2018-08-07T14:49:19.491Z,26
2018-08-07T16:25:25.957Z,26
2018-08-07T16:28:26.015Z,27
